sensor_id;sensor_type;location;lat;lon;timestamp;pressure;altitude;pressure_sealevel;temperature;humidity
77011;BME280;65945;53.148;17.956;2023-09-07T00:00:15;102141.44;;;15.85;83.97
77011;BME280;65945;53.148;17.956;2023-09-07T00:03:02;102148.89;;;15.84;83.55
77011;BME280;65945;53.148;17.956;2023-09-07T00:05:31;102146.26;;;15.83;83.67
77011;BME280;65945;53.148;17.956;2023-09-07T00:07:58;102148.61;;;15.82;83.82
77011;BME280;65945;53.148;17.956;2023-09-07T00:10:25;102148.20;;;15.81;83.79
77011;BME280;65945;53.148;17.956;2023-09-07T00:12:52;102146.08;;;15.79;83.96
77011;BME280;65945;53.148;17.956;2023-09-07T00:15:19;102147.80;;;15.78;84.07
77011;BME280;65945;53.148;17.956;2023-09-07T00:17:47;102148.21;;;15.75;84.16
77011;BME280;65945;53.148;17.956;2023-09-07T00:20:14;102148.46;;;15.73;84.25
77011;BME280;65945;53.148;17.956;2023-09-07T00:22:41;102149.40;;;15.70;84.56
77011;BME280;65945;53.148;17.956;2023-09-07T00:25:08;102150.62;;;15.66;84.69
77011;BME280;65945;53.148;17.956;2023-09-07T00:27:35;102153.01;;;15.63;84.61
77011;BME280;65945;53.148;17.956;2023-09-07T00:30:03;102153.25;;;15.60;84.63
77011;BME280;65945;53.148;17.956;2023-09-07T00:32:36;102155.48;;;15.58;84.47
77011;BME280;65945;53.148;17.956;2023-09-07T00:35:05;102151.09;;;15.55;84.62
77011;BME280;65945;53.148;17.956;2023-09-07T00:37:33;102152.96;;;15.52;84.77
77011;BME280;65945;53.148;17.956;2023-09-07T00:40:00;102149.56;;;15.49;84.87
77011;BME280;65945;53.148;17.956;2023-09-07T00:42:26;102150.40;;;15.46;84.94
77011;BME280;65945;53.148;17.956;2023-09-07T00:44:53;102146.95;;;15.43;85.00
77011;BME280;65945;53.148;17.956;2023-09-07T00:47:21;102147.83;;;15.42;85.37
77011;BME280;65945;53.148;17.956;2023-09-07T00:49:48;102144.55;;;15.38;85.35
77011;BME280;65945;53.148;17.956;2023-09-07T00:52:16;102143.11;;;15.36;85.51
77011;BME280;65945;53.148;17.956;2023-09-07T00:54:43;102144.20;;;15.34;85.69
77011;BME280;65945;53.148;17.956;2023-09-07T00:57:10;102147.67;;;15.31;85.72
77011;BME280;65945;53.148;17.956;2023-09-07T00:59:37;102144.23;;;15.29;86.06
77011;BME280;65945;53.148;17.956;2023-09-07T01:02:04;102145.46;;;15.26;86.20
77011;BME280;65945;53.148;17.956;2023-09-07T01:04:32;102148.08;;;15.23;86.33
77011;BME280;65945;53.148;17.956;2023-09-07T01:07:09;102149.95;;;15.21;86.39
77011;BME280;65945;53.148;17.956;2023-09-07T01:09:40;102148.41;;;15.18;86.45
77011;BME280;65945;53.148;17.956;2023-09-07T01:12:14;102146.60;;;15.17;86.43
77011;BME280;65945;53.148;17.956;2023-09-07T01:14:42;102146.09;;;15.15;86.54
77011;BME280;65945;53.148;17.956;2023-09-07T01:17:09;102148.81;;;15.13;86.50
77011;BME280;65945;53.148;17.956;2023-09-07T01:19:37;102153.89;;;15.10;86.42
77011;BME280;65945;53.148;17.956;2023-09-07T01:22:07;102152.39;;;15.09;86.59
77011;BME280;65945;53.148;17.956;2023-09-07T01:24:36;102148.92;;;15.06;86.72
77011;BME280;65945;53.148;17.956;2023-09-07T01:27:04;102149.33;;;15.04;86.88
77011;BME280;65945;53.148;17.956;2023-09-07T01:29:31;102147.58;;;15.02;87.05
77011;BME280;65945;53.148;17.956;2023-09-07T01:31:59;102145.21;;;15.00;87.54
77011;BME280;65945;53.148;17.956;2023-09-07T01:34:26;102146.09;;;14.98;87.69
77011;BME280;65945;53.148;17.956;2023-09-07T01:36:53;102149.56;;;14.96;88.32
77011;BME280;65945;53.148;17.956;2023-09-07T01:39:20;102149.83;;;14.94;88.64
77011;BME280;65945;53.148;17.956;2023-09-07T01:41:46;102152.41;;;14.93;89.06
77011;BME280;65945;53.148;17.956;2023-09-07T01:44:14;102153.17;;;14.92;89.07
77011;BME280;65945;53.148;17.956;2023-09-07T01:46:41;102153.15;;;14.91;89.18
77011;BME280;65945;53.148;17.956;2023-09-07T01:49:08;102151.68;;;14.91;89.44
77011;BME280;65945;53.148;17.956;2023-09-07T01:51:35;102152.08;;;14.92;89.45
77011;BME280;65945;53.148;17.956;2023-09-07T01:54:03;102147.14;;;14.92;89.43
77011;BME280;65945;53.148;17.956;2023-09-07T01:56:30;102145.92;;;14.92;89.23
77011;BME280;65945;53.148;17.956;2023-09-07T01:58:57;102146.45;;;14.92;89.01
77011;BME280;65945;53.148;17.956;2023-09-07T02:01:25;102144.59;;;14.91;88.90
77011;BME280;65945;53.148;17.956;2023-09-07T02:03:52;102148.02;;;14.90;88.85
77011;BME280;65945;53.148;17.956;2023-09-07T02:06:19;102146.64;;;14.90;89.05
77011;BME280;65945;53.148;17.956;2023-09-07T02:08:46;102142.73;;;14.88;89.05
77011;BME280;65945;53.148;17.956;2023-09-07T02:11:13;102147.16;;;14.87;89.14
77011;BME280;65945;53.148;17.956;2023-09-07T02:13:45;102145.15;;;14.86;89.06
77011;BME280;65945;53.148;17.956;2023-09-07T02:16:12;102143.96;;;14.85;88.90
77011;BME280;65945;53.148;17.956;2023-09-07T02:18:39;102143.09;;;14.84;88.82
77011;BME280;65945;53.148;17.956;2023-09-07T02:21:12;102144.84;;;14.84;89.00
77011;BME280;65945;53.148;17.956;2023-09-07T02:23:39;102143.80;;;14.83;89.08
77011;BME280;65945;53.148;17.956;2023-09-07T02:26:06;102145.93;;;14.81;89.02
77011;BME280;65945;53.148;17.956;2023-09-07T02:28:33;102141.88;;;14.80;88.89
77011;BME280;65945;53.148;17.956;2023-09-07T02:31:04;102146.44;;;14.81;89.01
77011;BME280;65945;53.148;17.956;2023-09-07T02:33:31;102145.14;;;14.81;89.13
77011;BME280;65945;53.148;17.956;2023-09-07T02:35:59;102149.33;;;14.81;89.31
77011;BME280;65945;53.148;17.956;2023-09-07T02:38:26;102148.34;;;14.82;89.24
77011;BME280;65945;53.148;17.956;2023-09-07T02:40:54;102145.98;;;14.83;89.35
77011;BME280;65945;53.148;17.956;2023-09-07T02:43:22;102148.73;;;14.85;89.42
77011;BME280;65945;53.148;17.956;2023-09-07T02:45:49;102150.96;;;14.88;89.52
77011;BME280;65945;53.148;17.956;2023-09-07T02:48:17;102152.87;;;14.90;89.50
77011;BME280;65945;53.148;17.956;2023-09-07T02:50:43;102153.27;;;14.93;89.47
77011;BME280;65945;53.148;17.956;2023-09-07T02:53:15;102154.91;;;14.97;89.50
77011;BME280;65945;53.148;17.956;2023-09-07T02:55:42;102154.34;;;15.01;89.32
77011;BME280;65945;53.148;17.956;2023-09-07T02:58:09;102152.61;;;15.06;89.35
77011;BME280;65945;53.148;17.956;2023-09-07T03:00:41;102153.34;;;15.10;89.22
77011;BME280;65945;53.148;17.956;2023-09-07T03:03:08;102154.14;;;15.14;89.29
77011;BME280;65945;53.148;17.956;2023-09-07T03:05:35;102152.44;;;15.16;89.42
77011;BME280;65945;53.148;17.956;2023-09-07T03:08:02;102154.57;;;15.18;89.55
77011;BME280;65945;53.148;17.956;2023-09-07T03:10:31;102154.08;;;15.19;89.58
77011;BME280;65945;53.148;17.956;2023-09-07T03:12:58;102152.88;;;15.21;89.64
77011;BME280;65945;53.148;17.956;2023-09-07T03:15:24;102156.39;;;15.23;89.81
77011;BME280;65945;53.148;17.956;2023-09-07T03:17:51;102153.34;;;15.23;90.19
77011;BME280;65945;53.148;17.956;2023-09-07T03:20:18;102155.14;;;15.25;90.46
77011;BME280;65945;53.148;17.956;2023-09-07T03:22:48;102152.85;;;15.26;90.61
77011;BME280;65945;53.148;17.956;2023-09-07T03:25:15;102152.17;;;15.26;90.80
77011;BME280;65945;53.148;17.956;2023-09-07T03:27:42;102154.02;;;15.26;91.05
77011;BME280;65945;53.148;17.956;2023-09-07T03:30:11;102155.33;;;15.27;90.92
77011;BME280;65945;53.148;17.956;2023-09-07T03:32:38;102151.73;;;15.27;91.21
77011;BME280;65945;53.148;17.956;2023-09-07T03:35:05;102155.54;;;15.28;91.67
77011;BME280;65945;53.148;17.956;2023-09-07T03:37:36;102160.47;;;15.28;92.12
77011;BME280;65945;53.148;17.956;2023-09-07T03:40:05;102162.47;;;15.28;92.62
77011;BME280;65945;53.148;17.956;2023-09-07T03:42:32;102163.48;;;15.28;91.93
77011;BME280;65945;53.148;17.956;2023-09-07T03:44:59;102160.81;;;15.29;91.96
77011;BME280;65945;53.148;17.956;2023-09-07T03:47:26;102163.59;;;15.30;92.27
77011;BME280;65945;53.148;17.956;2023-09-07T03:49:57;102164.75;;;15.30;92.64
77011;BME280;65945;53.148;17.956;2023-09-07T03:52:25;102166.81;;;15.29;92.58
77011;BME280;65945;53.148;17.956;2023-09-07T03:54:54;102169.48;;;15.28;92.74
77011;BME280;65945;53.148;17.956;2023-09-07T03:57:23;102168.48;;;15.28;92.47
77011;BME280;65945;53.148;17.956;2023-09-07T03:59:50;102166.79;;;15.29;92.77
77011;BME280;65945;53.148;17.956;2023-09-07T04:02:17;102165.92;;;15.28;93.07
77011;BME280;65945;53.148;17.956;2023-09-07T04:04:54;102166.52;;;15.27;93.51
77011;BME280;65945;53.148;17.956;2023-09-07T04:07:23;102168.13;;;15.26;94.12
77011;BME280;65945;53.148;17.956;2023-09-07T04:09:51;102168.31;;;15.25;93.92
77011;BME280;65945;53.148;17.956;2023-09-07T04:12:17;102173.68;;;15.24;93.93
77011;BME280;65945;53.148;17.956;2023-09-07T04:14:44;102172.58;;;15.23;94.34
77011;BME280;65945;53.148;17.956;2023-09-07T04:17:11;102175.42;;;15.23;94.35
77011;BME280;65945;53.148;17.956;2023-09-07T04:19:38;102175.55;;;15.22;94.30
77011;BME280;65945;53.148;17.956;2023-09-07T04:22:06;102181.55;;;15.22;94.10
77011;BME280;65945;53.148;17.956;2023-09-07T04:24:32;102180.57;;;15.22;93.91
77011;BME280;65945;53.148;17.956;2023-09-07T04:27:00;102182.77;;;15.24;93.85
77011;BME280;65945;53.148;17.956;2023-09-07T04:29:28;102188.84;;;15.26;93.47
77011;BME280;65945;53.148;17.956;2023-09-07T04:31:55;102184.58;;;15.28;93.52
77011;BME280;65945;53.148;17.956;2023-09-07T04:34:22;102184.21;;;15.29;93.61
77011;BME280;65945;53.148;17.956;2023-09-07T04:36:49;102186.89;;;15.31;93.64
77011;BME280;65945;53.148;17.956;2023-09-07T04:39:19;102185.06;;;15.32;93.61
77011;BME280;65945;53.148;17.956;2023-09-07T04:41:47;102189.30;;;15.32;93.57
77011;BME280;65945;53.148;17.956;2023-09-07T04:44:14;102189.44;;;15.34;93.73
77011;BME280;65945;53.148;17.956;2023-09-07T04:46:41;102189.21;;;15.34;94.09
77011;BME280;65945;53.148;17.956;2023-09-07T04:49:08;102196.16;;;15.34;94.44
77011;BME280;65945;53.148;17.956;2023-09-07T04:51:34;102196.59;;;15.36;94.29
77011;BME280;65945;53.148;17.956;2023-09-07T04:54:01;102195.94;;;15.37;94.78
77011;BME280;65945;53.148;17.956;2023-09-07T04:56:28;102199.57;;;15.38;94.81
77011;BME280;65945;53.148;17.956;2023-09-07T04:58:56;102198.79;;;15.40;94.75
77011;BME280;65945;53.148;17.956;2023-09-07T05:01:22;102201.27;;;15.43;94.76
77011;BME280;65945;53.148;17.956;2023-09-07T05:03:51;102204.46;;;15.45;95.39
77011;BME280;65945;53.148;17.956;2023-09-07T05:06:18;102208.73;;;15.46;95.16
77011;BME280;65945;53.148;17.956;2023-09-07T05:08:45;102205.17;;;15.48;94.81
77011;BME280;65945;53.148;17.956;2023-09-07T05:11:11;102205.46;;;15.51;94.72
77011;BME280;65945;53.148;17.956;2023-09-07T05:13:38;102205.53;;;15.53;94.88
77011;BME280;65945;53.148;17.956;2023-09-07T05:16:05;102206.06;;;15.56;94.46
77011;BME280;65945;53.148;17.956;2023-09-07T05:18:32;102204.09;;;15.60;94.31
77011;BME280;65945;53.148;17.956;2023-09-07T05:20:59;102205.02;;;15.63;94.13
77011;BME280;65945;53.148;17.956;2023-09-07T05:23:26;102207.30;;;15.68;93.82
77011;BME280;65945;53.148;17.956;2023-09-07T05:25:54;102209.65;;;15.72;94.14
77011;BME280;65945;53.148;17.956;2023-09-07T05:28:23;102206.60;;;15.73;93.86
77011;BME280;65945;53.148;17.956;2023-09-07T05:30:50;102208.83;;;15.73;93.62
77011;BME280;65945;53.148;17.956;2023-09-07T05:33:18;102209.66;;;15.75;93.34
77011;BME280;65945;53.148;17.956;2023-09-07T05:35:45;102211.80;;;15.78;93.73
77011;BME280;65945;53.148;17.956;2023-09-07T05:38:12;102213.50;;;15.81;93.38
77011;BME280;65945;53.148;17.956;2023-09-07T05:40:44;102215.10;;;15.83;93.72
77011;BME280;65945;53.148;17.956;2023-09-07T05:43:11;102213.73;;;15.84;93.29
77011;BME280;65945;53.148;17.956;2023-09-07T05:45:40;102214.07;;;15.88;93.16
77011;BME280;65945;53.148;17.956;2023-09-07T05:48:08;102218.63;;;15.94;93.17
77011;BME280;65945;53.148;17.956;2023-09-07T05:50:37;102221.84;;;15.97;93.33
77011;BME280;65945;53.148;17.956;2023-09-07T05:53:04;102223.20;;;15.98;93.15
77011;BME280;65945;53.148;17.956;2023-09-07T05:55:32;102223.70;;;16.03;93.07
77011;BME280;65945;53.148;17.956;2023-09-07T05:58:04;102223.91;;;16.09;92.85
77011;BME280;65945;53.148;17.956;2023-09-07T06:00:32;102227.77;;;16.15;92.76
77011;BME280;65945;53.148;17.956;2023-09-07T06:02:58;102231.09;;;16.19;92.75
77011;BME280;65945;53.148;17.956;2023-09-07T06:05:26;102229.61;;;16.21;92.74
77011;BME280;65945;53.148;17.956;2023-09-07T06:07:52;102233.83;;;16.23;92.66
77011;BME280;65945;53.148;17.956;2023-09-07T06:10:19;102236.87;;;16.27;92.67
77011;BME280;65945;53.148;17.956;2023-09-07T06:12:47;102236.16;;;16.30;92.80
77011;BME280;65945;53.148;17.956;2023-09-07T06:15:14;102239.19;;;16.31;92.80
77011;BME280;65945;53.148;17.956;2023-09-07T06:17:41;102243.00;;;16.33;92.96
77011;BME280;65945;53.148;17.956;2023-09-07T06:20:09;102245.45;;;16.35;92.88
77011;BME280;65945;53.148;17.956;2023-09-07T06:22:35;102244.11;;;16.37;92.80
77011;BME280;65945;53.148;17.956;2023-09-07T06:25:02;102247.80;;;16.42;92.88
77011;BME280;65945;53.148;17.956;2023-09-07T06:27:29;102253.89;;;16.45;92.81
77011;BME280;65945;53.148;17.956;2023-09-07T06:29:56;102251.52;;;16.49;92.73
77011;BME280;65945;53.148;17.956;2023-09-07T06:32:23;102250.26;;;16.51;92.75
77011;BME280;65945;53.148;17.956;2023-09-07T06:34:50;102254.55;;;16.57;92.56
77011;BME280;65945;53.148;17.956;2023-09-07T06:37:17;102255.67;;;16.62;92.37
77011;BME280;65945;53.148;17.956;2023-09-07T06:39:44;102260.18;;;16.67;92.08
77011;BME280;65945;53.148;17.956;2023-09-07T06:42:11;102260.41;;;16.73;91.87
77011;BME280;65945;53.148;17.956;2023-09-07T06:44:44;102261.54;;;16.82;91.50
77011;BME280;65945;53.148;17.956;2023-09-07T06:47:12;102264.24;;;16.89;91.31
77011;BME280;65945;53.148;17.956;2023-09-07T06:49:39;102265.71;;;16.97;91.02
77011;BME280;65945;53.148;17.956;2023-09-07T06:52:06;102271.28;;;17.04;90.47
77011;BME280;65945;53.148;17.956;2023-09-07T06:54:35;102275.73;;;17.09;90.12
77011;BME280;65945;53.148;17.956;2023-09-07T06:57:01;102274.73;;;17.14;90.04
77011;BME280;65945;53.148;17.956;2023-09-07T06:59:28;102274.48;;;17.24;89.87
77011;BME280;65945;53.148;17.956;2023-09-07T07:01:56;102276.66;;;17.37;89.54
77011;BME280;65945;53.148;17.956;2023-09-07T07:04:26;102278.64;;;17.43;88.81
77011;BME280;65945;53.148;17.956;2023-09-07T07:06:53;102281.16;;;17.45;88.62
77011;BME280;65945;53.148;17.956;2023-09-07T07:09:21;102279.02;;;17.46;88.51
77011;BME280;65945;53.148;17.956;2023-09-07T07:11:48;102274.34;;;17.47;88.27
77011;BME280;65945;53.148;17.956;2023-09-07T07:14:16;102275.07;;;17.48;88.32
77011;BME280;65945;53.148;17.956;2023-09-07T07:16:44;102274.97;;;17.52;88.06
77011;BME280;65945;53.148;17.956;2023-09-07T07:19:10;102277.03;;;17.53;88.13
77011;BME280;65945;53.148;17.956;2023-09-07T07:21:37;102275.97;;;17.55;88.14
77011;BME280;65945;53.148;17.956;2023-09-07T07:24:06;102278.71;;;17.57;88.14
77011;BME280;65945;53.148;17.956;2023-09-07T07:26:34;102278.20;;;17.59;88.04
77011;BME280;65945;53.148;17.956;2023-09-07T07:29:02;102283.70;;;17.63;87.99
77011;BME280;65945;53.148;17.956;2023-09-07T07:31:30;102287.38;;;17.69;87.89
77011;BME280;65945;53.148;17.956;2023-09-07T07:33:56;102289.19;;;17.76;87.89
77011;BME280;65945;53.148;17.956;2023-09-07T07:36:23;102292.48;;;17.85;87.66
77011;BME280;65945;53.148;17.956;2023-09-07T07:38:50;102298.17;;;17.93;87.06
77011;BME280;65945;53.148;17.956;2023-09-07T07:41:17;102301.48;;;18.00;86.41
77011;BME280;65945;53.148;17.956;2023-09-07T07:43:44;102306.60;;;18.10;85.90
77011;BME280;65945;53.148;17.956;2023-09-07T07:46:10;102308.05;;;18.17;85.52
77011;BME280;65945;53.148;17.956;2023-09-07T07:48:38;102310.38;;;18.32;85.76
77011;BME280;65945;53.148;17.956;2023-09-07T07:51:05;102308.71;;;18.51;85.14
77011;BME280;65945;53.148;17.956;2023-09-07T07:53:32;102312.17;;;18.71;84.03
77011;BME280;65945;53.148;17.956;2023-09-07T07:55:59;102311.31;;;18.86;83.13
77011;BME280;65945;53.148;17.956;2023-09-07T07:58:26;102310.10;;;19.05;83.30
77011;BME280;65945;53.148;17.956;2023-09-07T08:00:53;102311.77;;;19.23;83.03
77011;BME280;65945;53.148;17.956;2023-09-07T08:03:25;102312.83;;;19.38;82.08
77011;BME280;65945;53.148;17.956;2023-09-07T08:05:52;102309.67;;;19.41;81.49
77011;BME280;65945;53.148;17.956;2023-09-07T08:08:19;102311.48;;;19.43;81.80
77011;BME280;65945;53.148;17.956;2023-09-07T08:10:46;102311.15;;;19.48;81.66
77011;BME280;65945;53.148;17.956;2023-09-07T08:13:13;102314.09;;;19.61;81.69
77011;BME280;65945;53.148;17.956;2023-09-07T08:15:40;102311.29;;;19.74;81.02
77011;BME280;65945;53.148;17.956;2023-09-07T08:18:08;102309.02;;;19.80;79.63
77011;BME280;65945;53.148;17.956;2023-09-07T08:20:35;102309.95;;;19.80;78.87
77011;BME280;65945;53.148;17.956;2023-09-07T08:23:03;102311.95;;;19.78;79.22
77011;BME280;65945;53.148;17.956;2023-09-07T08:25:34;102313.46;;;19.83;78.88
77011;BME280;65945;53.148;17.956;2023-09-07T08:28:01;102317.91;;;19.78;78.09
77011;BME280;65945;53.148;17.956;2023-09-07T08:30:33;102314.23;;;19.74;78.95
77011;BME280;65945;53.148;17.956;2023-09-07T08:33:00;102312.71;;;19.76;79.48
77011;BME280;65945;53.148;17.956;2023-09-07T08:35:28;102314.56;;;19.83;78.66
77011;BME280;65945;53.148;17.956;2023-09-07T08:37:55;102317.66;;;19.82;77.51
77011;BME280;65945;53.148;17.956;2023-09-07T08:40:26;102317.40;;;19.80;78.07
77011;BME280;65945;53.148;17.956;2023-09-07T08:42:54;102313.38;;;19.80;78.31
77011;BME280;65945;53.148;17.956;2023-09-07T08:45:25;102305.49;;;19.85;78.41
77011;BME280;65945;53.148;17.956;2023-09-07T08:47:52;102303.73;;;19.95;78.38
77011;BME280;65945;53.148;17.956;2023-09-07T08:50:21;102301.89;;;20.05;77.87
77011;BME280;65945;53.148;17.956;2023-09-07T08:52:52;102301.44;;;20.14;77.38
77011;BME280;65945;53.148;17.956;2023-09-07T08:55:21;102302.06;;;20.21;77.41
77011;BME280;65945;53.148;17.956;2023-09-07T08:57:48;102306.10;;;20.32;77.56
77011;BME280;65945;53.148;17.956;2023-09-07T09:00:15;102306.98;;;20.43;76.94
77011;BME280;65945;53.148;17.956;2023-09-07T09:02:43;102307.36;;;20.52;75.79
77011;BME280;65945;53.148;17.956;2023-09-07T09:05:14;102301.59;;;20.59;75.37
77011;BME280;65945;53.148;17.956;2023-09-07T09:07:41;102301.50;;;20.69;76.07
77011;BME280;65945;53.148;17.956;2023-09-07T09:10:08;102292.95;;;20.83;74.57
77011;BME280;65945;53.148;17.956;2023-09-07T09:12:35;102294.35;;;20.94;75.26
77011;BME280;65945;53.148;17.956;2023-09-07T09:15:02;102292.73;;;21.10;75.84
77011;BME280;65945;53.148;17.956;2023-09-07T09:17:29;102291.02;;;21.28;75.30
77011;BME280;65945;53.148;17.956;2023-09-07T09:19:56;102289.44;;;21.43;75.06
77011;BME280;65945;53.148;17.956;2023-09-07T09:22:23;102287.46;;;21.61;75.30
77011;BME280;65945;53.148;17.956;2023-09-07T09:24:51;102286.03;;;21.77;73.53
77011;BME280;65945;53.148;17.956;2023-09-07T09:27:17;102284.43;;;21.87;72.82
77011;BME280;65945;53.148;17.956;2023-09-07T09:29:44;102281.48;;;21.91;71.70
77011;BME280;65945;53.148;17.956;2023-09-07T09:32:13;102279.70;;;21.99;72.72
77011;BME280;65945;53.148;17.956;2023-09-07T09:34:43;102276.75;;;22.14;70.98
77011;BME280;65945;53.148;17.956;2023-09-07T09:37:14;102277.83;;;22.26;71.84
77011;BME280;65945;53.148;17.956;2023-09-07T09:39:49;102279.61;;;22.40;71.36
77011;BME280;65945;53.148;17.956;2023-09-07T09:42:17;102276.87;;;22.47;70.13
77011;BME280;65945;53.148;17.956;2023-09-07T09:44:44;102277.65;;;22.56;71.01
77011;BME280;65945;53.148;17.956;2023-09-07T09:47:13;102276.23;;;22.71;71.43
77011;BME280;65945;53.148;17.956;2023-09-07T09:49:40;102278.05;;;22.88;67.87
77011;BME280;65945;53.148;17.956;2023-09-07T09:52:08;102282.48;;;22.94;66.14
77011;BME280;65945;53.148;17.956;2023-09-07T09:54:35;102276.77;;;23.02;66.58
77011;BME280;65945;53.148;17.956;2023-09-07T09:57:02;102276.73;;;23.10;66.09
77011;BME280;65945;53.148;17.956;2023-09-07T09:59:29;102277.64;;;23.19;66.05
77011;BME280;65945;53.148;17.956;2023-09-07T10:01:56;102272.14;;;23.30;67.54
77011;BME280;65945;53.148;17.956;2023-09-07T10:04:25;102268.95;;;23.43;66.19
77011;BME280;65945;53.148;17.956;2023-09-07T10:06:59;102267.80;;;23.54;66.80
77011;BME280;65945;53.148;17.956;2023-09-07T10:09:34;102267.23;;;23.69;66.48
77011;BME280;65945;53.148;17.956;2023-09-07T10:12:04;102267.86;;;23.79;63.93
77011;BME280;65945;53.148;17.956;2023-09-07T10:14:38;102272.68;;;23.83;64.00
77011;BME280;65945;53.148;17.956;2023-09-07T10:17:06;102273.35;;;23.88;63.08
77011;BME280;65945;53.148;17.956;2023-09-07T10:19:33;102273.95;;;23.91;62.78
77011;BME280;65945;53.148;17.956;2023-09-07T10:22:03;102270.47;;;23.96;63.73
77011;BME280;65945;53.148;17.956;2023-09-07T10:24:32;102271.02;;;24.02;61.92
77011;BME280;65945;53.148;17.956;2023-09-07T10:27:03;102273.59;;;24.03;61.55
77011;BME280;65945;53.148;17.956;2023-09-07T10:29:44;102264.41;;;24.15;62.01
77011;BME280;65945;53.148;17.956;2023-09-07T10:32:11;102263.14;;;24.25;59.55
77011;BME280;65945;53.148;17.956;2023-09-07T10:34:41;102262.05;;;24.27;59.07
77011;BME280;65945;53.148;17.956;2023-09-07T10:37:11;102262.84;;;24.32;61.05
77011;BME280;65945;53.148;17.956;2023-09-07T10:39:40;102258.96;;;24.46;59.82
77011;BME280;65945;53.148;17.956;2023-09-07T10:42:23;102258.45;;;24.59;61.79
77011;BME280;65945;53.148;17.956;2023-09-07T10:44:50;102256.13;;;24.72;58.05
77011;BME280;65945;53.148;17.956;2023-09-07T10:47:17;102256.60;;;24.72;57.70
77011;BME280;65945;53.148;17.956;2023-09-07T10:49:44;102254.21;;;24.75;58.11
77011;BME280;65945;53.148;17.956;2023-09-07T10:52:11;102257.37;;;24.80;58.56
77011;BME280;65945;53.148;17.956;2023-09-07T10:54:38;102256.56;;;24.88;57.39
77011;BME280;65945;53.148;17.956;2023-09-07T10:57:09;102255.49;;;24.93;56.92
77011;BME280;65945;53.148;17.956;2023-09-07T10:59:36;102250.01;;;25.00;56.78
77011;BME280;65945;53.148;17.956;2023-09-07T11:02:04;102247.92;;;25.11;57.18
77011;BME280;65945;53.148;17.956;2023-09-07T11:04:31;102248.75;;;25.19;55.85
77011;BME280;65945;53.148;17.956;2023-09-07T11:06:58;102248.84;;;25.23;55.52
77011;BME280;65945;53.148;17.956;2023-09-07T11:09:25;102244.98;;;25.26;55.75
77011;BME280;65945;53.148;17.956;2023-09-07T11:11:52;102242.20;;;25.35;56.09
77011;BME280;65945;53.148;17.956;2023-09-07T11:14:21;102244.92;;;25.42;54.81
77011;BME280;65945;53.148;17.956;2023-09-07T11:16:48;102242.72;;;25.49;55.34
77011;BME280;65945;53.148;17.956;2023-09-07T11:19:15;102244.29;;;25.59;55.60
77011;BME280;65945;53.148;17.956;2023-09-07T11:21:42;102241.48;;;25.69;54.80
77011;BME280;65945;53.148;17.956;2023-09-07T11:24:09;102237.73;;;25.74;55.12
77011;BME280;65945;53.148;17.956;2023-09-07T11:26:43;102235.85;;;25.82;55.26
77011;BME280;65945;53.148;17.956;2023-09-07T11:29:14;102233.08;;;25.89;53.42
77011;BME280;65945;53.148;17.956;2023-09-07T11:31:42;102232.78;;;25.89;53.33
77011;BME280;65945;53.148;17.956;2023-09-07T11:34:13;102224.77;;;25.90;53.53
77011;BME280;65945;53.148;17.956;2023-09-07T11:36:41;102225.17;;;25.93;53.61
77011;BME280;65945;53.148;17.956;2023-09-07T11:39:08;102220.70;;;26.00;54.14
77011;BME280;65945;53.148;17.956;2023-09-07T11:41:40;102220.60;;;26.11;53.92
77011;BME280;65945;53.148;17.956;2023-09-07T11:44:08;102219.49;;;26.16;51.92
77011;BME280;65945;53.148;17.956;2023-09-07T11:46:36;102218.59;;;26.18;52.47
77011;BME280;65945;53.148;17.956;2023-09-07T11:49:03;102219.95;;;26.21;52.31
77011;BME280;65945;53.148;17.956;2023-09-07T11:51:31;102220.20;;;26.29;51.71
77011;BME280;65945;53.148;17.956;2023-09-07T11:53:58;102219.63;;;26.29;51.38
77011;BME280;65945;53.148;17.956;2023-09-07T11:56:25;102220.15;;;26.35;53.25
77011;BME280;65945;53.148;17.956;2023-09-07T11:58:53;102216.06;;;26.51;53.39
77011;BME280;65945;53.148;17.956;2023-09-07T12:01:21;102222.52;;;26.67;51.49
77011;BME280;65945;53.148;17.956;2023-09-07T12:03:48;102221.70;;;26.70;51.63
77011;BME280;65945;53.148;17.956;2023-09-07T12:06:15;102223.80;;;26.78;52.37
77011;BME280;65945;53.148;17.956;2023-09-07T12:08:58;102222.90;;;26.92;52.32
77011;BME280;65945;53.148;17.956;2023-09-07T12:11:24;102224.40;;;27.06;51.69
77011;BME280;65945;53.148;17.956;2023-09-07T12:13:51;102222.58;;;27.18;52.04
77011;BME280;65945;53.148;17.956;2023-09-07T12:16:18;102220.25;;;27.27;50.43
77011;BME280;65945;53.148;17.956;2023-09-07T12:18:44;102221.22;;;27.26;48.51
77011;BME280;65945;53.148;17.956;2023-09-07T12:21:11;102215.27;;;27.22;49.75
77011;BME280;65945;53.148;17.956;2023-09-07T12:23:38;102212.86;;;27.24;49.89
77011;BME280;65945;53.148;17.956;2023-09-07T12:26:04;102210.48;;;27.28;49.58
77011;BME280;65945;53.148;17.956;2023-09-07T12:28:31;102207.36;;;27.27;49.02
77011;BME280;65945;53.148;17.956;2023-09-07T12:31:00;102202.61;;;27.25;48.73
77011;BME280;65945;53.148;17.956;2023-09-07T12:33:27;102198.10;;;27.27;49.01
77011;BME280;65945;53.148;17.956;2023-09-07T12:35:56;102197.55;;;27.28;49.60
77011;BME280;65945;53.148;17.956;2023-09-07T12:38:23;102194.53;;;27.36;49.29
77011;BME280;65945;53.148;17.956;2023-09-07T12:40:54;102194.94;;;27.46;48.35
77011;BME280;65945;53.148;17.956;2023-09-07T12:43:21;102189.45;;;27.39;47.92